createdAt,value
2022-11-03T00:01:14.656Z,98208.84
2022-11-03T00:03:41.323Z,98212.22
2022-11-03T00:06:08.469Z,98210.06
2022-11-03T00:08:40.950Z,98216.97
2022-11-03T00:11:13.464Z,98219.03
2022-11-03T00:13:44.230Z,98209.22
2022-11-03T00:16:12.412Z,98203.59
2022-11-03T00:18:39.650Z,98197.91
2022-11-03T00:21:08.848Z,98195.88
2022-11-03T00:23:40.794Z,98195.78
2022-11-03T00:26:13.612Z,98204.81
2022-11-03T00:28:47.672Z,98202.63
2022-11-03T00:31:19.425Z,98201.91
2022-11-03T00:33:46.579Z,98203.25
2022-11-03T00:36:16.334Z,98199.66
2022-11-03T00:38:44.511Z,98195.44
2022-11-03T00:41:12.421Z,98189.19
2022-11-03T00:43:39.167Z,98180.13
2022-11-03T00:46:07.244Z,98181.44
2022-11-03T00:48:35.243Z,98189.06
2022-11-03T00:51:22.882Z,98178.56
2022-11-03T00:53:55.111Z,98175.81
2022-11-03T00:56:26.041Z,98175.69
2022-11-03T00:58:53.864Z,98177.75
2022-11-03T01:01:26.478Z,98174.25
2022-11-03T01:04:14.414Z,98162.44
2022-11-03T01:06:52.363Z,98151.94
2022-11-03T01:09:30.930Z,98149.06
2022-11-03T01:12:27.605Z,98144.22
2022-11-03T01:14:54.209Z,98146.28
2022-11-03T01:17:23.645Z,98144.84
2022-11-03T01:19:50.854Z,98140.63
2022-11-03T01:22:18.283Z,98141.97
2022-11-03T01:24:45.560Z,98144.84
2022-11-03T01:27:14.826Z,98137.84
2022-11-03T01:29:41.963Z,98135.69
2022-11-03T01:32:09.028Z,98123.88
2022-11-03T01:34:36.405Z,98121.00
2022-11-03T01:37:03.943Z,98112.66
2022-11-03T01:39:30.529Z,98116.78
2022-11-03T01:41:57.394Z,98111.22
2022-11-03T01:44:30.308Z,98110.50
2022-11-03T01:47:07.819Z,98106.31
2022-11-03T01:50:09.190Z,98102.78
2022-11-03T01:52:44.908Z,98102.78
2022-11-03T01:55:18.332Z,98089.53
2022-11-03T01:57:50.852Z,98087.38
2022-11-03T02:00:17.624Z,98083.16
2022-11-03T02:02:45.132Z,98085.84
2022-11-03T02:05:13.088Z,98076.06
2022-11-03T02:10:41.136Z,98060.66
2022-11-03T02:13:18.051Z,98055.00
2022-11-03T02:15:46.199Z,98055.63
2022-11-03T02:18:13.977Z,98049.34
2022-11-03T02:20:42.485Z,98031.16
2022-11-03T02:23:20.880Z,98042.25
2022-11-03T02:25:55.687Z,98035.88
2022-11-03T02:28:25.811Z,98036.47
2022-11-03T02:31:16.448Z,98034.34
2022-11-03T02:34:09.616Z,98030.84
2022-11-03T02:37:00.049Z,98023.13
2022-11-03T02:39:36.718Z,98018.91
2022-11-03T02:42:04.789Z,98011.78
2022-11-03T02:44:33.641Z,98014.56
2022-11-03T02:47:06.280Z,98002.03
2022-11-03T02:49:38.510Z,98007.50
2022-11-03T02:52:06.060Z,98001.94
2022-11-03T02:54:40.181Z,97995.56
2022-11-03T02:57:21.764Z,98001.00
2022-11-03T02:59:58.041Z,97988.47
2022-11-03T03:02:34.838Z,97983.66
2022-11-03T03:05:06.282Z,97984.28
2022-11-03T03:07:37.703Z,97980.03
2022-11-03T03:10:18.758Z,97970.28
2022-11-03T03:12:51.077Z,97964.66
2022-11-03T03:15:18.783Z,97968.03
2022-11-03T03:17:52.626Z,97962.38
2022-11-03T03:21:01.703Z,97952.72
2022-11-03T03:23:35.660Z,97947.06
2022-11-03T03:26:08.444Z,97950.56
2022-11-03T03:28:48.530Z,97935.25
2022-11-03T03:31:18.905Z,97932.50
2022-11-03T03:33:47.992Z,97937.31
2022-11-03T03:36:18.144Z,97929.63
2022-11-03T03:38:52.208Z,97924.19
2022-11-03T03:41:23.054Z,97910.44
2022-11-03T03:43:52.444Z,97909.19
2022-11-03T03:46:22.172Z,97910.72
2022-11-03T03:48:49.172Z,97903.22
2022-11-03T03:51:19.756Z,97890.28
2022-11-03T03:53:51.481Z,97904.50
2022-11-03T03:56:23.986Z,97896.56
2022-11-03T03:58:50.755Z,97898.22
2022-11-03T04:01:17.451Z,97891.44
2022-11-03T04:03:44.132Z,97890.91
2022-11-03T04:06:10.713Z,97895.13
2022-11-03T04:08:37.335Z,97891.72
2022-11-03T04:11:22.964Z,97895.22
2022-11-03T04:14:08.339Z,97900.75
2022-11-03T04:16:53.623Z,97894.50
2022-11-03T04:19:39.028Z,97895.22
2022-11-03T04:22:17.222Z,97898.00
2022-11-03T04:24:51.989Z,97891.72
2022-11-03T04:27:36.832Z,97882.69
2022-11-03T04:30:29.833Z,97872.94
2022-11-03T04:32:57.520Z,97880.53
2022-11-03T04:35:26.280Z,97863.19
2022-11-03T04:38:00.808Z,97863.19
2022-11-03T04:40:28.191Z,97863.91
2022-11-03T04:42:55.627Z,97868.81
2022-11-03T04:45:34.144Z,97862.84
2022-11-03T04:48:09.480Z,97862.53
2022-11-03T04:50:36.075Z,97855.94
2022-11-03T04:53:02.650Z,97861.03
2022-11-03T04:55:29.233Z,97852.19
2022-11-03T04:58:02.711Z,97848.34
2022-11-03T05:00:29.403Z,97855.56
2022-11-03T05:02:56.597Z,97852.13
2022-11-03T05:05:26.525Z,97850.91
2022-11-03T05:07:56.809Z,97843.38
2022-11-03T05:10:29.412Z,97835.53
2022-11-03T05:12:57.400Z,97833.81
2022-11-03T05:15:51.386Z,97837.81
2022-11-03T05:18:25.648Z,97837.09
2022-11-03T05:20:59.689Z,97836.31
2022-11-03T05:23:28.160Z,97831.75
2022-11-03T05:25:58.075Z,97822.94
2022-11-03T05:28:59.863Z,97817.63
2022-11-03T05:31:29.492Z,97817.88
2022-11-03T05:34:01.763Z,97817.09
2022-11-03T05:36:29.902Z,97805.06
2022-11-03T05:39:01.346Z,97801.09
2022-11-03T05:41:30.551Z,97804.16
2022-11-03T05:44:02.893Z,97798.78
2022-11-03T05:46:32.952Z,97800.31
2022-11-03T05:49:02.517Z,97797.66
2022-11-03T05:51:34.916Z,97794.88
2022-11-03T05:54:04.827Z,97789.50
2022-11-03T05:56:33.101Z,97795.06
2022-11-03T05:59:01.812Z,97790.94
2022-11-03T06:01:36.212Z,97786.72
2022-11-03T06:04:41.080Z,97786.81
2022-11-03T06:07:24.911Z,97777.84
2022-11-03T06:09:53.588Z,97780.72
2022-11-03T06:12:22.290Z,97786.47
2022-11-03T06:14:49.653Z,97786.63
2022-11-03T06:17:25.723Z,97785.50
2022-11-03T06:20:00.146Z,97784.94
2022-11-03T06:22:31.084Z,97781.00
2022-11-03T06:25:31.891Z,97782.59
2022-11-03T06:28:06.446Z,97782.69
2022-11-03T06:30:36.046Z,97780.72
2022-11-03T06:33:12.810Z,97777.31
2022-11-03T06:35:39.685Z,97781.44
2022-11-03T06:38:16.482Z,97780.09
2022-11-03T06:40:43.106Z,97771.75
2022-11-03T06:43:16.851Z,97767.63
2022-11-03T06:45:54.751Z,97773.19
2022-11-03T06:48:25.043Z,97774.53
2022-11-03T06:50:52.086Z,97766.91
2022-11-03T06:53:25.738Z,97769.69
2022-11-03T06:55:52.769Z,97766.91
2022-11-03T06:58:32.697Z,97770.41
2022-11-03T07:01:03.982Z,97767.63
2022-11-03T07:03:33.658Z,97770.50
2022-11-03T07:06:24.458Z,97770.50
2022-11-03T07:08:56.893Z,97762.78
2022-11-03T07:11:26.157Z,97761.34
2022-11-03T07:13:57.774Z,97753.00
2022-11-03T07:16:37.488Z,97753.00
2022-11-03T07:19:10.300Z,97749.53
2022-11-03T07:21:58.679Z,97750.22
2022-11-03T07:24:29.964Z,97747.44
2022-11-03T07:27:20.312Z,97739.81
2022-11-03T07:29:48.313Z,97738.41
2022-11-03T07:32:29.085Z,97737.03
2022-11-03T07:35:05.776Z,97738.50
2022-11-03T07:37:32.431Z,97737.03
2022-11-03T07:39:59.133Z,97732.94
2022-11-03T07:42:27.439Z,97732.19
2022-11-03T07:44:56.311Z,97729.44
2022-11-03T07:47:25.844Z,97727.38
2022-11-03T07:49:52.777Z,97728.00
2022-11-03T07:52:22.407Z,97720.38
2022-11-03T07:54:51.397Z,97717.59
2022-11-03T07:57:25.069Z,97705.75
2022-11-03T08:00:08.816Z,97703.63
2022-11-03T08:02:48.169Z,97699.44
2022-11-03T08:05:15.052Z,97684.78
2022-11-03T08:07:41.871Z,97679.25
2022-11-03T08:10:09.644Z,97679.97
2022-11-03T08:12:36.226Z,97673.69
2022-11-03T08:15:02.906Z,97677.19
2022-11-03T08:17:29.529Z,97677.19
2022-11-03T08:19:56.364Z,97668.75
2022-11-03T08:22:25.865Z,97681.22
2022-11-03T08:24:53.214Z,97671.44
2022-11-03T08:27:20.046Z,97672.81
2022-11-03T08:29:47.051Z,97665.19
2022-11-03T08:32:13.876Z,97660.34
2022-11-03T08:34:40.605Z,97659.00
2022-11-03T08:37:07.197Z,97655.50
2022-11-03T08:39:36.056Z,97652.00
2022-11-03T08:42:02.723Z,97647.91
2022-11-03T08:44:29.508Z,97640.97
2022-11-03T08:46:56.144Z,97645.81
2022-11-03T08:49:22.727Z,97633.28
2022-11-03T08:51:49.335Z,97632.53
2022-11-03T08:54:15.931Z,97629.16
2022-11-03T08:56:43.808Z,97625.00
2022-11-03T08:59:10.609Z,97624.31
2022-11-03T09:01:37.260Z,97627.19
2022-11-03T09:04:04.168Z,97612.53
2022-11-03T09:06:30.812Z,97624.41
2022-11-03T09:11:44.346Z,97625.72
2022-11-03T09:14:11.080Z,97620.88
2022-11-03T09:16:37.656Z,97617.41
2022-11-03T09:19:04.432Z,97616.06
2022-11-03T09:21:31.068Z,97616.78
2022-11-03T09:23:59.454Z,97610.50
2022-11-03T09:26:27.077Z,97600.81
2022-11-03T09:28:53.697Z,97609.16
2022-11-03T09:31:20.532Z,97607.72
2022-11-03T09:33:47.121Z,97602.16
2022-11-03T09:36:13.924Z,97593.84
2022-11-03T09:38:40.512Z,97603.59
2022-11-03T09:41:18.537Z,97591.06
2022-11-03T09:43:54.005Z,97583.44
2022-11-03T09:46:20.985Z,97579.19
2022-11-03T09:48:47.736Z,97583.34
2022-11-03T09:51:19.978Z,97574.28
2022-11-03T09:53:46.979Z,97569.44
2022-11-03T09:56:14.008Z,97570.81
2022-11-03T09:58:41.463Z,97561.75
2022-11-03T10:01:11.374Z,97565.97
2022-11-03T10:03:39.217Z,97559.69
2022-11-03T10:06:09.657Z,97554.75
2022-11-03T10:08:41.894Z,97549.19
2022-11-03T10:11:09.387Z,97540.84
2022-11-03T10:13:48.856Z,97542.94
2022-11-03T10:16:18.553Z,97540.78
2022-11-03T10:18:45.701Z,97529.69
2022-11-03T10:21:20.516Z,97530.28
2022-11-03T10:23:47.157Z,97523.41
2022-11-03T10:26:18.697Z,97526.25
2022-11-03T10:29:21.944Z,97515.84
2022-11-03T10:31:51.491Z,97503.41
2022-11-03T10:34:41.787Z,97499.97
2022-11-03T10:37:25.996Z,97497.91
2022-11-03T10:39:54.871Z,97498.63
2022-11-03T10:42:35.526Z,97491.03
2022-11-03T10:45:19.895Z,97489.66
2022-11-03T10:48:01.513Z,97479.25
2022-11-03T10:50:28.477Z,97472.34
2022-11-03T10:52:55.489Z,97462.19
2022-11-03T10:55:25.235Z,97462.31
2022-11-03T10:57:55.671Z,97452.81
2022-11-03T11:00:22.543Z,97441.75
2022-11-03T11:02:51.715Z,97439.78
2022-11-03T11:05:21.394Z,97428.66
2022-11-03T11:07:51.203Z,97432.78
2022-11-03T11:10:23.832Z,97422.38
2022-11-03T11:13:25.909Z,97411.88
2022-11-03T11:15:58.500Z,97404.91
2022-11-03T11:19:08.252Z,97393.72
2022-11-03T11:22:01.656Z,97393.72
2022-11-03T11:25:03.901Z,97388.16
2022-11-03T11:27:59.896Z,97382.53
2022-11-03T11:30:58.700Z,97377.69
2022-11-03T11:33:27.862Z,97375.59
2022-11-03T11:36:18.809Z,97360.28
2022-11-03T11:38:55.754Z,97356.81
2022-11-03T11:42:00.507Z,97352.59
2022-11-03T11:45:05.612Z,97342.13
2022-11-03T11:47:52.615Z,97338.69
2022-11-03T11:50:25.275Z,97333.06
2022-11-03T11:53:00.970Z,97327.50
2022-11-03T11:55:50.993Z,97326.72
2022-11-03T11:58:42.420Z,97319.03
2022-11-03T12:01:33.379Z,97314.19
2022-11-03T12:04:14.475Z,97310.69
2022-11-03T12:06:42.552Z,97303.78
2022-11-03T12:09:22.992Z,97307.22
2022-11-03T12:11:56.483Z,97292.53
2022-11-03T12:14:34.224Z,97291.88
2022-11-03T12:17:38.885Z,97286.25
2022-11-03T12:20:35.839Z,97286.25
2022-11-03T12:23:02.664Z,97278.63
2022-11-03T12:25:35.204Z,97273.06
2022-11-03T12:28:02.156Z,97275.84
2022-11-03T12:30:28.981Z,97270.28
2022-11-03T12:32:55.560Z,97267.50
2022-11-03T12:35:22.303Z,97256.41
2022-11-03T12:37:48.972Z,97247.34
2022-11-03T12:40:15.690Z,97243.22
2022-11-03T12:42:42.490Z,97243.91
2022-11-03T12:45:10.013Z,97237.66
2022-11-03T12:47:36.628Z,97232.09
2022-11-03T12:50:04.328Z,97229.31
2022-11-03T12:52:30.949Z,97226.63
2022-11-03T12:54:57.568Z,97214.16
2022-11-03T12:57:24.915Z,97221.81
2022-11-03T12:59:52.403Z,97225.97
2022-11-03T13:02:19.280Z,97210.00
2022-11-03T13:04:45.952Z,97214.19
2022-11-03T13:07:12.764Z,97209.28
2022-11-03T13:09:39.371Z,97210.00
2022-11-03T13:12:24.843Z,97210.72
2022-11-03T13:14:51.641Z,97212.78
2022-11-03T13:17:18.418Z,97214.84
2022-11-03T13:19:45.050Z,97206.53
2022-11-03T13:22:11.807Z,97208.59
2022-11-03T13:24:38.679Z,97197.47
2022-11-03T13:27:05.335Z,97192.63
2022-11-03T13:29:35.425Z,97189.84
2022-11-03T13:32:06.329Z,97189.19
2022-11-03T13:34:32.916Z,97194.75
2022-11-03T13:36:59.558Z,97190.69
2022-11-03T13:39:26.457Z,97192.13
2022-11-03T13:41:53.283Z,97196.94
2022-11-03T13:44:19.883Z,97201.88
2022-11-03T13:46:46.519Z,97203.25
2022-11-03T13:51:59.885Z,97200.03
2022-11-03T14:00:03.619Z,97205.47
2022-11-03T14:05:18.769Z,97214.81
2022-11-03T14:07:45.416Z,97214.94
2022-11-03T14:10:12.089Z,97210.78
2022-11-03T14:12:38.893Z,97202.53
2022-11-03T14:15:08.737Z,97204.00
2022-11-03T14:17:36.076Z,97194.38
2022-11-03T14:20:04.807Z,97191.66
2022-11-03T14:22:32.457Z,97192.44
2022-11-03T14:24:59.870Z,97177.16
2022-11-03T14:27:26.535Z,97173.75
2022-11-03T14:29:53.267Z,97161.25
2022-11-03T14:32:20.557Z,97159.19
2022-11-03T14:34:47.977Z,97146.03
2022-11-03T14:37:15.402Z,97141.13
2022-11-03T14:39:42.234Z,97134.84
2022-11-03T14:42:15.371Z,97134.84
2022-11-03T14:44:44.057Z,97134.81
2022-11-03T14:47:13.444Z,97141.69
2022-11-03T14:49:40.433Z,97137.50
2022-11-03T14:52:07.922Z,97129.81
2022-11-03T14:54:34.835Z,97130.47
2022-11-03T14:57:01.973Z,97133.25
2022-11-03T14:59:29.012Z,97128.34
2022-11-03T15:01:55.944Z,97136.59
2022-11-03T15:04:22.756Z,97119.91
2022-11-03T15:06:49.750Z,97131.00
2022-11-03T15:09:16.900Z,97124.66
2022-11-03T15:11:44.453Z,97116.25
2022-11-03T15:14:11.998Z,97107.91
2022-11-03T15:16:39.122Z,97100.22
2022-11-03T15:19:06.721Z,97100.16
2022-11-03T15:21:33.649Z,97100.16
2022-11-03T15:26:48.034Z,97099.44
2022-11-03T15:29:14.663Z,97096.59
2022-11-03T15:31:47.175Z,97091.69
2022-11-03T15:34:15.260Z,97078.47
2022-11-03T15:36:42.062Z,97071.50
2022-11-03T15:39:08.736Z,97072.16
2022-11-03T15:41:35.384Z,97065.91
2022-11-03T15:44:01.993Z,97065.91
2022-11-03T15:46:28.592Z,97058.84
2022-11-03T15:48:56.595Z,97054.56
2022-11-03T15:51:25.280Z,97054.50
2022-11-03T15:53:57.927Z,97054.44
2022-11-03T15:56:28.564Z,97055.81
2022-11-03T15:58:55.180Z,97051.53
2022-11-03T16:01:21.915Z,97047.28
2022-11-03T16:03:48.823Z,97049.28
2022-11-03T16:06:15.405Z,97043.00
2022-11-03T16:08:41.997Z,97036.66
2022-11-03T16:11:09.089Z,97032.47
2022-11-03T16:13:36.019Z,97022.66
2022-11-03T16:16:03.150Z,97011.50
2022-11-03T16:18:33.035Z,97012.13
2022-11-03T16:20:59.620Z,97021.13
2022-11-03T16:23:26.420Z,97014.78
2022-11-03T16:25:53.944Z,97014.06
2022-11-03T16:28:20.613Z,97002.88
2022-11-03T16:30:52.821Z,97004.25
2022-11-03T16:33:20.806Z,97000.69
2022-11-03T16:35:47.413Z,96996.50
2022-11-03T16:38:15.384Z,96988.81
2022-11-03T16:40:42.738Z,96985.97
2022-11-03T16:43:09.596Z,96983.16
2022-11-03T16:45:37.985Z,96969.84
2022-11-03T16:48:06.230Z,96967.06
2022-11-03T16:50:33.504Z,96955.88
2022-11-03T16:53:00.138Z,96953.75
2022-11-03T16:55:26.783Z,96946.06
2022-11-03T16:57:53.382Z,96951.63
2022-11-03T17:00:20.922Z,96951.63
2022-11-03T17:02:47.650Z,96948.78
2022-11-03T17:05:16.608Z,96941.16
2022-11-03T17:07:45.347Z,96939.78
2022-11-03T17:10:14.248Z,96923.84
2022-11-03T17:12:40.927Z,96932.25
2022-11-03T17:15:08.090Z,96924.63
2022-11-03T17:17:35.146Z,96914.38
2022-11-03T17:20:02.096Z,96914.72
2022-11-03T17:22:28.716Z,96909.81
2022-11-03T17:24:55.627Z,96913.69
2022-11-03T17:27:31.758Z,96918.56
2022-11-03T17:30:08.717Z,96922.75
2022-11-03T17:32:38.974Z,96928.59
2022-11-03T17:35:46.254Z,96932.44
2022-11-03T17:38:17.872Z,96931.44
2022-11-03T17:40:46.816Z,96917.03
2022-11-03T17:43:20.986Z,96912.38
2022-11-03T17:45:47.585Z,96911.31
2022-11-03T17:48:14.344Z,96913.63
2022-11-03T17:50:49.508Z,96913.28
2022-11-03T17:53:31.223Z,96891.56
2022-11-03T17:58:47.795Z,96888.16
2022-11-03T18:01:22.660Z,96880.41
2022-11-03T18:03:49.429Z,96871.16
2022-11-03T18:06:19.187Z,96872.31
2022-11-03T18:08:47.517Z,96864.38
2022-11-03T18:11:43.168Z,96854.41
2022-11-03T18:14:09.993Z,96851.25
2022-11-03T18:16:36.691Z,96854.44
2022-11-03T18:19:04.165Z,96856.41
2022-11-03T18:21:30.977Z,96849.81
2022-11-03T18:23:58.788Z,96841.34
2022-11-03T18:26:26.929Z,96838.19
2022-11-03T18:28:54.055Z,96831.78
2022-11-03T18:31:43.196Z,96838.91
2022-11-03T18:34:19.845Z,96843.31
2022-11-03T18:36:46.783Z,96827.84
2022-11-03T18:39:25.481Z,96809.06
2022-11-03T18:41:52.329Z,96791.16
2022-11-03T18:44:24.346Z,96800.09
2022-11-03T18:46:52.860Z,96806.72
2022-11-03T18:49:19.741Z,96802.19
2022-11-03T18:52:02.817Z,96773.38
2022-11-03T18:54:31.699Z,96759.00
2022-11-03T18:56:59.213Z,96746.75
2022-11-03T18:59:31.838Z,96741.34
2022-11-03T19:01:59.116Z,96738.72
2022-11-03T19:04:25.906Z,96745.75
2022-11-03T19:06:52.919Z,96740.97
2022-11-03T19:09:22.689Z,96723.72
2022-11-03T19:11:50.276Z,96725.13
2022-11-03T19:14:28.512Z,96713.41
2022-11-03T19:19:45.207Z,96713.59
2022-11-03T19:22:14.266Z,96703.25
2022-11-03T19:24:41.597Z,96703.25
2022-11-03T19:27:31.047Z,96693.56
2022-11-03T19:29:59.521Z,96680.41
2022-11-03T19:32:34.287Z,96662.44
2022-11-03T19:35:23.040Z,96650.00
2022-11-03T19:38:02.572Z,96653.50
2022-11-03T19:40:29.992Z,96655.59
2022-11-03T19:42:57.819Z,96652.84
2022-11-03T19:45:25.155Z,96642.47
2022-11-03T19:50:49.473Z,96648.72
2022-11-03T19:53:22.393Z,96654.25
2022-11-03T19:55:49.925Z,96654.25
2022-11-03T19:58:21.471Z,96652.19
2022-11-03T20:00:49.283Z,96657.09
2022-11-03T20:03:16.244Z,96651.75
2022-11-03T20:05:48.935Z,96654.69
2022-11-03T20:08:19.751Z,96652.94
2022-11-03T20:10:47.945Z,96648.41
2022-11-03T20:13:17.937Z,96650.75
2022-11-03T20:15:44.572Z,96654.50
2022-11-03T20:18:15.049Z,96649.84
2022-11-03T20:20:43.797Z,96643.75
2022-11-03T20:23:30.955Z,96643.25
2022-11-03T20:25:58.266Z,96627.41
2022-11-03T20:28:28.406Z,96621.97
2022-11-03T20:30:56.280Z,96613.06
2022-11-03T20:33:25.152Z,96619.38
2022-11-03T20:35:53.577Z,96613.94
2022-11-03T20:38:21.220Z,96611.19
2022-11-03T20:40:51.304Z,96611.97
2022-11-03T20:43:31.603Z,96612.75
2022-11-03T20:45:59.192Z,96609.31
2022-11-03T20:48:25.862Z,96607.94
2022-11-03T20:50:53.746Z,96601.03
2022-11-03T20:53:23.246Z,96599.69
2022-11-03T20:55:52.189Z,96594.91
2022-11-03T20:58:19.028Z,96586.59
2022-11-03T21:00:47.560Z,96580.34
2022-11-03T21:06:16.542Z,96571.38
2022-11-03T21:08:44.856Z,96580.41
2022-11-03T21:11:23.716Z,96576.97
2022-11-03T21:13:58.376Z,96570.78
2022-11-03T21:16:45.516Z,96578.44
2022-11-03T21:19:58.512Z,96579.16
2022-11-03T21:25:19.728Z,96571.63
2022-11-03T21:27:47.496Z,96570.28
2022-11-03T21:30:16.693Z,96571.72
2022-11-03T21:32:43.425Z,96561.31
2022-11-03T21:35:14.570Z,96562.03
2022-11-03T21:37:41.164Z,96555.78
2022-11-03T21:40:08.732Z,96553.69
2022-11-03T21:42:54.117Z,96551.69
2022-11-03T21:45:20.967Z,96546.84
2022-11-03T21:48:12.893Z,96537.13
2022-11-03T21:50:40.842Z,96531.59
2022-11-03T21:53:07.871Z,96530.94
2022-11-03T21:55:35.142Z,96526.81
2022-11-03T21:58:02.684Z,96530.28
2022-11-03T22:00:29.595Z,96511.56
2022-11-03T22:02:56.456Z,96517.88
2022-11-03T22:05:23.084Z,96505.34
2022-11-03T22:07:49.885Z,96509.53
2022-11-03T22:10:17.830Z,96510.94
2022-11-03T22:12:44.681Z,96513.00
2022-11-03T22:15:30.256Z,96503.97
2022-11-03T22:18:01.392Z,96506.06
2022-11-03T22:20:46.495Z,96510.84
2022-11-03T22:23:34.050Z,96500.44
2022-11-03T22:26:20.253Z,96494.84
2022-11-03T22:29:06.904Z,96495.50
2022-11-03T22:31:42.332Z,96493.38
2022-11-03T22:34:27.571Z,96495.47
2022-11-03T22:36:54.366Z,96487.72
2022-11-03T22:39:39.483Z,96487.66
2022-11-03T22:42:24.941Z,96477.16
2022-11-03T22:45:10.380Z,96481.97
2022-11-03T22:47:37.010Z,96481.97
2022-11-03T22:50:03.830Z,96484.75
2022-11-03T22:52:30.419Z,96490.31
2022-11-03T22:54:56.986Z,96486.91
2022-11-03T22:57:23.619Z,96488.31
2022-11-03T22:59:50.403Z,96480.00
2022-11-03T23:02:17.012Z,96482.09
2022-11-03T23:04:43.716Z,96475.19
2022-11-03T23:07:10.280Z,96485.66
2022-11-03T23:09:36.859Z,96482.22
2022-11-03T23:12:03.870Z,96485.00
2022-11-03T23:14:50.372Z,96473.94
2022-11-03T23:17:17.722Z,96464.91
2022-11-03T23:20:02.895Z,96467.63
2022-11-03T23:22:29.789Z,96454.41
2022-11-03T23:24:59.237Z,96457.19
2022-11-03T23:27:25.876Z,96450.91
2022-11-03T23:29:52.525Z,96441.16
2022-11-03T23:32:19.379Z,96442.53
2022-11-03T23:34:46.178Z,96432.78
2022-11-03T23:37:12.805Z,96432.78
2022-11-03T23:39:39.400Z,96439.00
2022-11-03T23:42:06.335Z,96436.88
2022-11-03T23:44:52.923Z,96439.66
2022-11-03T23:47:38.010Z,96434.78
2022-11-03T23:50:05.400Z,96425.72
2022-11-03T23:52:32.042Z,96423.63
2022-11-03T23:54:58.627Z,96413.88
2022-11-03T23:57:43.953Z,96411.09
